sensor_id;sensor_type;location;lat;lon;timestamp;P1;durP1;ratioP1;P2;durP2;ratioP2
20185;SDS011;10252;48.792;8.582;2023-10-09T00:04:14;22.92;;;5.28;;
20185;SDS011;10252;48.792;8.582;2023-10-09T00:09:20;16.95;;;4.90;;
20185;SDS011;10252;48.792;8.582;2023-10-09T00:14:24;20.25;;;4.55;;
20185;SDS011;10252;48.792;8.582;2023-10-09T00:19:27;18.80;;;5.85;;
20185;SDS011;10252;48.792;8.582;2023-10-09T00:24:33;20.83;;;5.38;;
20185;SDS011;10252;48.792;8.582;2023-10-09T00:29:34;17.73;;;5.70;;
20185;SDS011;10252;48.792;8.582;2023-10-09T00:34:42;21.02;;;5.25;;
20185;SDS011;10252;48.792;8.582;2023-10-09T00:39:44;17.83;;;4.43;;
20185;SDS011;10252;48.792;8.582;2023-10-09T00:44:48;16.52;;;4.63;;
20185;SDS011;10252;48.792;8.582;2023-10-09T00:49:50;21.80;;;5.55;;
20185;SDS011;10252;48.792;8.582;2023-10-09T00:55:11;24.67;;;6.40;;
20185;SDS011;10252;48.792;8.582;2023-10-09T01:00:21;18.25;;;5.88;;
20185;SDS011;10252;48.792;8.582;2023-10-09T01:05:51;17.80;;;4.68;;
20185;SDS011;10252;48.792;8.582;2023-10-09T01:11:14;20.13;;;6.30;;
20185;SDS011;10252;48.792;8.582;2023-10-09T01:16:22;21.90;;;4.88;;
20185;SDS011;10252;48.792;8.582;2023-10-09T01:21:24;22.00;;;6.32;;
20185;SDS011;10252;48.792;8.582;2023-10-09T01:26:27;27.10;;;6.40;;
20185;SDS011;10252;48.792;8.582;2023-10-09T01:31:30;23.50;;;5.13;;
20185;SDS011;10252;48.792;8.582;2023-10-09T01:36:40;17.90;;;6.28;;
20185;SDS011;10252;48.792;8.582;2023-10-09T01:41:42;20.63;;;5.35;;
20185;SDS011;10252;48.792;8.582;2023-10-09T01:46:47;22.17;;;5.32;;
20185;SDS011;10252;48.792;8.582;2023-10-09T01:51:48;21.77;;;4.97;;
20185;SDS011;10252;48.792;8.582;2023-10-09T01:56:51;20.55;;;6.28;;
20185;SDS011;10252;48.792;8.582;2023-10-09T02:01:55;15.68;;;5.53;;
20185;SDS011;10252;48.792;8.582;2023-10-09T02:06:58;17.65;;;5.65;;
20185;SDS011;10252;48.792;8.582;2023-10-09T02:12:00;23.58;;;5.22;;
20185;SDS011;10252;48.792;8.582;2023-10-09T02:17:02;12.75;;;4.53;;
20185;SDS011;10252;48.792;8.582;2023-10-09T02:22:09;14.32;;;5.07;;
20185;SDS011;10252;48.792;8.582;2023-10-09T02:27:14;14.18;;;5.45;;
20185;SDS011;10252;48.792;8.582;2023-10-09T02:32:34;21.63;;;5.35;;
20185;SDS011;10252;48.792;8.582;2023-10-09T02:37:36;18.50;;;5.82;;
20185;SDS011;10252;48.792;8.582;2023-10-09T02:42:38;20.52;;;5.78;;
20185;SDS011;10252;48.792;8.582;2023-10-09T02:47:43;16.65;;;4.75;;
20185;SDS011;10252;48.792;8.582;2023-10-09T02:52:48;13.80;;;5.57;;
20185;SDS011;10252;48.792;8.582;2023-10-09T02:57:59;19.20;;;5.18;;
20185;SDS011;10252;48.792;8.582;2023-10-09T03:03:20;19.48;;;4.22;;
20185;SDS011;10252;48.792;8.582;2023-10-09T03:08:21;16.52;;;4.18;;
20185;SDS011;10252;48.792;8.582;2023-10-09T03:13:23;14.38;;;4.95;;
20185;SDS011;10252;48.792;8.582;2023-10-09T03:18:24;16.65;;;4.35;;
20185;SDS011;10252;48.792;8.582;2023-10-09T03:23:25;19.02;;;4.72;;
20185;SDS011;10252;48.792;8.582;2023-10-09T03:28:27;14.90;;;4.53;;
20185;SDS011;10252;48.792;8.582;2023-10-09T03:33:29;10.75;;;3.85;;
20185;SDS011;10252;48.792;8.582;2023-10-09T03:38:33;17.95;;;4.93;;
20185;SDS011;10252;48.792;8.582;2023-10-09T03:43:35;13.43;;;3.88;;
20185;SDS011;10252;48.792;8.582;2023-10-09T03:48:41;19.73;;;4.47;;
20185;SDS011;10252;48.792;8.582;2023-10-09T03:53:45;12.18;;;4.03;;
20185;SDS011;10252;48.792;8.582;2023-10-09T03:58:48;15.75;;;5.00;;
20185;SDS011;10252;48.792;8.582;2023-10-09T04:03:50;16.63;;;4.60;;
20185;SDS011;10252;48.792;8.582;2023-10-09T04:08:55;15.02;;;5.07;;
20185;SDS011;10252;48.792;8.582;2023-10-09T04:13:58;17.13;;;5.05;;
20185;SDS011;10252;48.792;8.582;2023-10-09T04:19:04;14.95;;;5.30;;
20185;SDS011;10252;48.792;8.582;2023-10-09T04:24:11;13.32;;;3.95;;
20185;SDS011;10252;48.792;8.582;2023-10-09T04:29:13;15.82;;;5.18;;
20185;SDS011;10252;48.792;8.582;2023-10-09T04:34:27;20.95;;;4.35;;
20185;SDS011;10252;48.792;8.582;2023-10-09T04:39:29;12.27;;;3.95;;
20185;SDS011;10252;48.792;8.582;2023-10-09T04:44:31;14.38;;;5.43;;
20185;SDS011;10252;48.792;8.582;2023-10-09T04:49:37;14.13;;;4.32;;
20185;SDS011;10252;48.792;8.582;2023-10-09T04:54:48;14.98;;;4.32;;
20185;SDS011;10252;48.792;8.582;2023-10-09T05:00:11;17.75;;;4.70;;
20185;SDS011;10252;48.792;8.582;2023-10-09T05:05:25;15.90;;;4.80;;
20185;SDS011;10252;48.792;8.582;2023-10-09T05:10:42;14.77;;;5.25;;
20185;SDS011;10252;48.792;8.582;2023-10-09T05:16:07;14.02;;;4.75;;
20185;SDS011;10252;48.792;8.582;2023-10-09T05:21:30;15.88;;;4.25;;
20185;SDS011;10252;48.792;8.582;2023-10-09T05:26:32;16.33;;;4.47;;
20185;SDS011;10252;48.792;8.582;2023-10-09T05:31:48;16.23;;;4.47;;
20185;SDS011;10252;48.792;8.582;2023-10-09T05:36:57;16.50;;;4.60;;
20185;SDS011;10252;48.792;8.582;2023-10-09T05:42:11;20.60;;;4.97;;
20185;SDS011;10252;48.792;8.582;2023-10-09T05:47:18;15.77;;;5.05;;
20185;SDS011;10252;48.792;8.582;2023-10-09T05:52:32;18.60;;;5.28;;
20185;SDS011;10252;48.792;8.582;2023-10-09T05:57:40;14.13;;;6.03;;
20185;SDS011;10252;48.792;8.582;2023-10-09T06:02:56;20.15;;;4.38;;
20185;SDS011;10252;48.792;8.582;2023-10-09T06:08:17;15.10;;;4.75;;
20185;SDS011;10252;48.792;8.582;2023-10-09T06:13:25;16.17;;;5.35;;
20185;SDS011;10252;48.792;8.582;2023-10-09T06:18:47;19.77;;;4.70;;
20185;SDS011;10252;48.792;8.582;2023-10-09T06:24:08;16.02;;;5.18;;
20185;SDS011;10252;48.792;8.582;2023-10-09T06:29:14;13.43;;;5.00;;
20185;SDS011;10252;48.792;8.582;2023-10-09T06:34:17;17.40;;;4.95;;
20185;SDS011;10252;48.792;8.582;2023-10-09T06:39:21;14.65;;;5.07;;
20185;SDS011;10252;48.792;8.582;2023-10-09T06:44:41;16.55;;;4.47;;
20185;SDS011;10252;48.792;8.582;2023-10-09T06:49:55;11.50;;;5.05;;
20185;SDS011;10252;48.792;8.582;2023-10-09T06:55:16;21.17;;;6.28;;
20185;SDS011;10252;48.792;8.582;2023-10-09T07:00:20;14.07;;;4.78;;
20185;SDS011;10252;48.792;8.582;2023-10-09T07:05:40;14.48;;;5.53;;
20185;SDS011;10252;48.792;8.582;2023-10-09T07:11:00;15.82;;;5.95;;
20185;SDS011;10252;48.792;8.582;2023-10-09T07:16:22;18.17;;;6.25;;
20185;SDS011;10252;48.792;8.582;2023-10-09T07:21:38;18.48;;;6.53;;
20185;SDS011;10252;48.792;8.582;2023-10-09T07:26:52;18.13;;;5.47;;
20185;SDS011;10252;48.792;8.582;2023-10-09T07:31:55;17.30;;;5.88;;
20185;SDS011;10252;48.792;8.582;2023-10-09T07:37:12;14.88;;;5.47;;
20185;SDS011;10252;48.792;8.582;2023-10-09T07:42:19;13.45;;;5.10;;
20185;SDS011;10252;48.792;8.582;2023-10-09T07:47:33;13.13;;;5.20;;
20185;SDS011;10252;48.792;8.582;2023-10-09T07:53:01;16.88;;;5.55;;
20185;SDS011;10252;48.792;8.582;2023-10-09T07:58:15;17.27;;;5.22;;
20185;SDS011;10252;48.792;8.582;2023-10-09T08:03:16;16.27;;;5.50;;
20185;SDS011;10252;48.792;8.582;2023-10-09T08:08:33;16.98;;;7.25;;
20185;SDS011;10252;48.792;8.582;2023-10-09T08:13:34;25.02;;;14.27;;
20185;SDS011;10252;48.792;8.582;2023-10-09T08:18:57;19.55;;;6.65;;
20185;SDS011;10252;48.792;8.582;2023-10-09T08:23:58;20.33;;;5.85;;
20185;SDS011;10252;48.792;8.582;2023-10-09T08:29:05;18.52;;;6.15;;
20185;SDS011;10252;48.792;8.582;2023-10-09T08:34:20;17.13;;;6.22;;
20185;SDS011;10252;48.792;8.582;2023-10-09T08:39:27;17.73;;;5.65;;
20185;SDS011;10252;48.792;8.582;2023-10-09T08:44:33;16.58;;;5.70;;
20185;SDS011;10252;48.792;8.582;2023-10-09T08:49:35;15.43;;;5.05;;
20185;SDS011;10252;48.792;8.582;2023-10-09T08:54:37;21.02;;;7.03;;
20185;SDS011;10252;48.792;8.582;2023-10-09T08:59:42;20.80;;;5.72;;
20185;SDS011;10252;48.792;8.582;2023-10-09T09:04:43;13.73;;;4.18;;
20185;SDS011;10252;48.792;8.582;2023-10-09T09:09:57;15.57;;;3.80;;
20185;SDS011;10252;48.792;8.582;2023-10-09T09:15:04;19.17;;;4.78;;
20185;SDS011;10252;48.792;8.582;2023-10-09T09:20:24;23.75;;;3.90;;
20185;SDS011;10252;48.792;8.582;2023-10-09T09:25:40;24.52;;;4.00;;
20185;SDS011;10252;48.792;8.582;2023-10-09T09:30:45;17.35;;;3.80;;
20185;SDS011;10252;48.792;8.582;2023-10-09T09:35:58;20.95;;;4.10;;
20185;SDS011;10252;48.792;8.582;2023-10-09T09:40:59;15.05;;;3.75;;
20185;SDS011;10252;48.792;8.582;2023-10-09T09:46:02;20.25;;;4.03;;
20185;SDS011;10252;48.792;8.582;2023-10-09T09:51:08;16.83;;;3.40;;
20185;SDS011;10252;48.792;8.582;2023-10-09T09:56:09;20.60;;;3.83;;
20185;SDS011;10252;48.792;8.582;2023-10-09T10:01:17;13.93;;;3.70;;
20185;SDS011;10252;48.792;8.582;2023-10-09T10:06:25;15.57;;;3.67;;
20185;SDS011;10252;48.792;8.582;2023-10-09T10:11:43;19.55;;;4.80;;
20185;SDS011;10252;48.792;8.582;2023-10-09T10:17:19;13.48;;;3.35;;
20185;SDS011;10252;48.792;8.582;2023-10-09T10:22:25;16.38;;;3.65;;
20185;SDS011;10252;48.792;8.582;2023-10-09T10:27:30;14.90;;;4.07;;
20185;SDS011;10252;48.792;8.582;2023-10-09T10:37:52;10.88;;;3.60;;
20185;SDS011;10252;48.792;8.582;2023-10-09T10:43:15;15.45;;;3.85;;
20185;SDS011;10252;48.792;8.582;2023-10-09T10:48:35;18.10;;;3.83;;
20185;SDS011;10252;48.792;8.582;2023-10-09T10:53:53;11.93;;;3.20;;
20185;SDS011;10252;48.792;8.582;2023-10-09T10:58:59;9.07;;;3.40;;
20185;SDS011;10252;48.792;8.582;2023-10-09T11:04:09;11.88;;;3.03;;
20185;SDS011;10252;48.792;8.582;2023-10-09T11:09:12;11.65;;;3.25;;
20185;SDS011;10252;48.792;8.582;2023-10-09T11:14:23;16.17;;;3.22;;
20185;SDS011;10252;48.792;8.582;2023-10-09T11:19:25;14.77;;;3.58;;
20185;SDS011;10252;48.792;8.582;2023-10-09T11:24:32;15.27;;;3.25;;
20185;SDS011;10252;48.792;8.582;2023-10-09T11:29:35;12.60;;;4.30;;
20185;SDS011;10252;48.792;8.582;2023-10-09T11:34:42;11.27;;;3.92;;
20185;SDS011;10252;48.792;8.582;2023-10-09T11:39:52;12.65;;;4.20;;
20185;SDS011;10252;48.792;8.582;2023-10-09T11:44:53;12.38;;;4.00;;
20185;SDS011;10252;48.792;8.582;2023-10-09T11:49:56;12.02;;;3.63;;
20185;SDS011;10252;48.792;8.582;2023-10-09T11:55:01;12.00;;;3.88;;
20185;SDS011;10252;48.792;8.582;2023-10-09T12:00:04;13.10;;;4.28;;
20185;SDS011;10252;48.792;8.582;2023-10-09T12:05:25;11.00;;;3.25;;
20185;SDS011;10252;48.792;8.582;2023-10-09T12:10:28;12.85;;;3.75;;
20185;SDS011;10252;48.792;8.582;2023-10-09T12:15:30;11.18;;;3.70;;
20185;SDS011;10252;48.792;8.582;2023-10-09T12:20:38;7.22;;;3.38;;
20185;SDS011;10252;48.792;8.582;2023-10-09T12:25:40;9.27;;;3.10;;
20185;SDS011;10252;48.792;8.582;2023-10-09T12:30:45;9.25;;;3.67;;
20185;SDS011;10252;48.792;8.582;2023-10-09T12:35:50;12.10;;;3.80;;
20185;SDS011;10252;48.792;8.582;2023-10-09T12:40:52;7.97;;;4.10;;
20185;SDS011;10252;48.792;8.582;2023-10-09T12:45:53;10.10;;;4.15;;
20185;SDS011;10252;48.792;8.582;2023-10-09T12:50:57;8.02;;;3.33;;
20185;SDS011;10252;48.792;8.582;2023-10-09T12:56:06;13.25;;;4.30;;
20185;SDS011;10252;48.792;8.582;2023-10-09T13:01:08;11.13;;;3.95;;
20185;SDS011;10252;48.792;8.582;2023-10-09T13:06:10;15.95;;;6.03;;
20185;SDS011;10252;48.792;8.582;2023-10-09T13:11:12;15.60;;;5.28;;
20185;SDS011;10252;48.792;8.582;2023-10-09T13:16:17;10.30;;;5.00;;
20185;SDS011;10252;48.792;8.582;2023-10-09T13:21:26;13.35;;;5.57;;
20185;SDS011;10252;48.792;8.582;2023-10-09T13:26:32;14.55;;;5.13;;
20185;SDS011;10252;48.792;8.582;2023-10-09T13:31:35;9.65;;;4.45;;
20185;SDS011;10252;48.792;8.582;2023-10-09T13:36:38;12.75;;;5.93;;
20185;SDS011;10252;48.792;8.582;2023-10-09T13:41:41;16.20;;;6.43;;
20185;SDS011;10252;48.792;8.582;2023-10-09T13:46:43;11.27;;;5.53;;
20185;SDS011;10252;48.792;8.582;2023-10-09T13:51:45;17.38;;;6.22;;
20185;SDS011;10252;48.792;8.582;2023-10-09T13:56:49;12.77;;;6.18;;
20185;SDS011;10252;48.792;8.582;2023-10-09T14:01:54;19.05;;;6.30;;
20185;SDS011;10252;48.792;8.582;2023-10-09T14:06:56;18.40;;;6.20;;
20185;SDS011;10252;48.792;8.582;2023-10-09T14:11:59;14.40;;;5.10;;
20185;SDS011;10252;48.792;8.582;2023-10-09T14:17:07;9.38;;;5.05;;
20185;SDS011;10252;48.792;8.582;2023-10-09T14:22:12;15.23;;;5.35;;
20185;SDS011;10252;48.792;8.582;2023-10-09T14:27:15;17.00;;;6.18;;
20185;SDS011;10252;48.792;8.582;2023-10-09T14:32:21;14.73;;;5.53;;
20185;SDS011;10252;48.792;8.582;2023-10-09T14:37:29;10.30;;;5.30;;
20185;SDS011;10252;48.792;8.582;2023-10-09T14:42:31;19.98;;;6.50;;
20185;SDS011;10252;48.792;8.582;2023-10-09T14:47:33;14.93;;;4.82;;
20185;SDS011;10252;48.792;8.582;2023-10-09T14:52:37;13.98;;;6.13;;
20185;SDS011;10252;48.792;8.582;2023-10-09T14:57:39;18.60;;;5.82;;
20185;SDS011;10252;48.792;8.582;2023-10-09T15:02:40;13.73;;;4.90;;
20185;SDS011;10252;48.792;8.582;2023-10-09T15:07:41;14.98;;;6.05;;
20185;SDS011;10252;48.792;8.582;2023-10-09T15:12:43;14.65;;;5.10;;
20185;SDS011;10252;48.792;8.582;2023-10-09T15:17:47;16.42;;;5.07;;
20185;SDS011;10252;48.792;8.582;2023-10-09T15:22:48;15.93;;;5.32;;
20185;SDS011;10252;48.792;8.582;2023-10-09T15:27:50;15.73;;;5.53;;
20185;SDS011;10252;48.792;8.582;2023-10-09T15:32:52;13.05;;;5.50;;
20185;SDS011;10252;48.792;8.582;2023-10-09T15:37:53;14.25;;;4.88;;
20185;SDS011;10252;48.792;8.582;2023-10-09T15:42:55;16.30;;;6.28;;
20185;SDS011;10252;48.792;8.582;2023-10-09T15:47:57;13.90;;;5.63;;
20185;SDS011;10252;48.792;8.582;2023-10-09T15:53:00;13.93;;;5.28;;
20185;SDS011;10252;48.792;8.582;2023-10-09T15:58:02;15.32;;;5.13;;
20185;SDS011;10252;48.792;8.582;2023-10-09T16:03:09;12.13;;;4.82;;
20185;SDS011;10252;48.792;8.582;2023-10-09T16:08:14;10.50;;;4.47;;
20185;SDS011;10252;48.792;8.582;2023-10-09T16:13:15;11.77;;;5.25;;
20185;SDS011;10252;48.792;8.582;2023-10-09T16:18:18;17.15;;;4.65;;
20185;SDS011;10252;48.792;8.582;2023-10-09T16:23:21;13.60;;;5.75;;
20185;SDS011;10252;48.792;8.582;2023-10-09T16:28:22;14.50;;;5.20;;
20185;SDS011;10252;48.792;8.582;2023-10-09T16:33:26;11.38;;;4.32;;
20185;SDS011;10252;48.792;8.582;2023-10-09T16:38:27;14.32;;;5.90;;
20185;SDS011;10252;48.792;8.582;2023-10-09T16:43:29;11.40;;;5.35;;
20185;SDS011;10252;48.792;8.582;2023-10-09T16:48:30;10.88;;;4.80;;
20185;SDS011;10252;48.792;8.582;2023-10-09T16:53:32;16.95;;;5.03;;
20185;SDS011;10252;48.792;8.582;2023-10-09T16:58:40;17.42;;;5.50;;
20185;SDS011;10252;48.792;8.582;2023-10-09T17:03:41;13.45;;;4.90;;
20185;SDS011;10252;48.792;8.582;2023-10-09T17:08:43;14.90;;;6.78;;
20185;SDS011;10252;48.792;8.582;2023-10-09T17:13:47;14.93;;;6.25;;
20185;SDS011;10252;48.792;8.582;2023-10-09T17:18:49;10.32;;;4.72;;
20185;SDS011;10252;48.792;8.582;2023-10-09T17:23:55;16.40;;;6.32;;
20185;SDS011;10252;48.792;8.582;2023-10-09T17:28:59;15.23;;;5.22;;
20185;SDS011;10252;48.792;8.582;2023-10-09T17:34:01;17.25;;;4.70;;
20185;SDS011;10252;48.792;8.582;2023-10-09T17:39:03;11.68;;;5.22;;
20185;SDS011;10252;48.792;8.582;2023-10-09T17:44:05;16.05;;;5.57;;
20185;SDS011;10252;48.792;8.582;2023-10-09T17:49:07;14.02;;;5.32;;
20185;SDS011;10252;48.792;8.582;2023-10-09T17:54:09;13.13;;;4.85;;
20185;SDS011;10252;48.792;8.582;2023-10-09T17:59:14;12.85;;;5.57;;
20185;SDS011;10252;48.792;8.582;2023-10-09T18:04:15;13.35;;;5.53;;
20185;SDS011;10252;48.792;8.582;2023-10-09T18:09:16;16.73;;;5.35;;
20185;SDS011;10252;48.792;8.582;2023-10-09T18:14:18;17.95;;;7.40;;
20185;SDS011;10252;48.792;8.582;2023-10-09T18:19:19;17.90;;;7.13;;
20185;SDS011;10252;48.792;8.582;2023-10-09T18:24:20;10.13;;;6.47;;
20185;SDS011;10252;48.792;8.582;2023-10-09T18:29:23;16.20;;;6.82;;
20185;SDS011;10252;48.792;8.582;2023-10-09T18:34:24;13.98;;;6.45;;
20185;SDS011;10252;48.792;8.582;2023-10-09T18:39:29;15.73;;;6.65;;
20185;SDS011;10252;48.792;8.582;2023-10-09T18:44:31;15.02;;;6.70;;
20185;SDS011;10252;48.792;8.582;2023-10-09T18:49:32;13.85;;;6.18;;
20185;SDS011;10252;48.792;8.582;2023-10-09T18:54:37;18.58;;;7.38;;
20185;SDS011;10252;48.792;8.582;2023-10-09T18:59:38;16.60;;;6.80;;
20185;SDS011;10252;48.792;8.582;2023-10-09T19:04:42;17.42;;;6.97;;
20185;SDS011;10252;48.792;8.582;2023-10-09T19:09:44;11.40;;;6.35;;
20185;SDS011;10252;48.792;8.582;2023-10-09T19:14:46;19.75;;;10.85;;
20185;SDS011;10252;48.792;8.582;2023-10-09T19:19:48;22.00;;;10.07;;
20185;SDS011;10252;48.792;8.582;2023-10-09T19:24:49;13.93;;;7.07;;
20185;SDS011;10252;48.792;8.582;2023-10-09T19:29:52;13.88;;;6.53;;
20185;SDS011;10252;48.792;8.582;2023-10-09T19:34:54;18.98;;;6.60;;
20185;SDS011;10252;48.792;8.582;2023-10-09T19:39:55;14.18;;;6.75;;
20185;SDS011;10252;48.792;8.582;2023-10-09T19:44:57;18.65;;;7.25;;
20185;SDS011;10252;48.792;8.582;2023-10-09T19:49:59;18.35;;;6.78;;
20185;SDS011;10252;48.792;8.582;2023-10-09T19:55:02;16.30;;;7.65;;
20185;SDS011;10252;48.792;8.582;2023-10-09T20:00:06;17.67;;;7.20;;
20185;SDS011;10252;48.792;8.582;2023-10-09T20:05:21;14.90;;;7.35;;
20185;SDS011;10252;48.792;8.582;2023-10-09T20:10:22;12.73;;;6.03;;
20185;SDS011;10252;48.792;8.582;2023-10-09T20:15:24;16.33;;;5.80;;
20185;SDS011;10252;48.792;8.582;2023-10-09T20:20:26;13.05;;;5.63;;
20185;SDS011;10252;48.792;8.582;2023-10-09T20:25:29;19.42;;;6.30;;
20185;SDS011;10252;48.792;8.582;2023-10-09T20:30:35;13.18;;;5.35;;
20185;SDS011;10252;48.792;8.582;2023-10-09T20:35:36;19.05;;;8.00;;
20185;SDS011;10252;48.792;8.582;2023-10-09T20:40:46;18.13;;;6.30;;
20185;SDS011;10252;48.792;8.582;2023-10-09T20:45:49;16.98;;;6.57;;
20185;SDS011;10252;48.792;8.582;2023-10-09T20:50:50;17.55;;;6.22;;
20185;SDS011;10252;48.792;8.582;2023-10-09T20:55:52;14.88;;;5.65;;
20185;SDS011;10252;48.792;8.582;2023-10-09T21:00:57;17.33;;;6.47;;
20185;SDS011;10252;48.792;8.582;2023-10-09T21:06:00;14.32;;;6.00;;
20185;SDS011;10252;48.792;8.582;2023-10-09T21:11:03;15.25;;;7.15;;
20185;SDS011;10252;48.792;8.582;2023-10-09T21:16:05;12.68;;;5.88;;
20185;SDS011;10252;48.792;8.582;2023-10-09T21:21:12;16.45;;;6.55;;
20185;SDS011;10252;48.792;8.582;2023-10-09T21:26:20;17.55;;;6.07;;
20185;SDS011;10252;48.792;8.582;2023-10-09T21:31:22;19.60;;;6.78;;
20185;SDS011;10252;48.792;8.582;2023-10-09T21:36:26;11.98;;;5.28;;
20185;SDS011;10252;48.792;8.582;2023-10-09T21:41:27;12.60;;;5.20;;
20185;SDS011;10252;48.792;8.582;2023-10-09T21:46:29;12.55;;;5.00;;
20185;SDS011;10252;48.792;8.582;2023-10-09T21:51:31;17.65;;;5.68;;
20185;SDS011;10252;48.792;8.582;2023-10-09T21:56:33;12.55;;;5.43;;
20185;SDS011;10252;48.792;8.582;2023-10-09T22:01:36;18.15;;;6.10;;
20185;SDS011;10252;48.792;8.582;2023-10-09T22:06:38;14.75;;;5.72;;
20185;SDS011;10252;48.792;8.582;2023-10-09T22:11:40;15.20;;;5.90;;
20185;SDS011;10252;48.792;8.582;2023-10-09T22:16:42;22.45;;;8.80;;
20185;SDS011;10252;48.792;8.582;2023-10-09T22:21:45;20.77;;;7.22;;
20185;SDS011;10252;48.792;8.582;2023-10-09T22:26:49;13.80;;;5.70;;
20185;SDS011;10252;48.792;8.582;2023-10-09T22:31:51;16.92;;;5.72;;
20185;SDS011;10252;48.792;8.582;2023-10-09T22:36:54;13.00;;;5.13;;
20185;SDS011;10252;48.792;8.582;2023-10-09T22:41:57;17.25;;;5.95;;
20185;SDS011;10252;48.792;8.582;2023-10-09T22:47:01;14.25;;;5.47;;
20185;SDS011;10252;48.792;8.582;2023-10-09T22:52:07;14.43;;;6.15;;
20185;SDS011;10252;48.792;8.582;2023-10-09T22:57:14;19.98;;;5.20;;
20185;SDS011;10252;48.792;8.582;2023-10-09T23:02:17;15.38;;;6.25;;
20185;SDS011;10252;48.792;8.582;2023-10-09T23:07:22;17.77;;;5.28;;
20185;SDS011;10252;48.792;8.582;2023-10-09T23:12:23;12.98;;;5.93;;
20185;SDS011;10252;48.792;8.582;2023-10-09T23:17:35;11.85;;;5.45;;
20185;SDS011;10252;48.792;8.582;2023-10-09T23:22:47;14.60;;;5.20;;
20185;SDS011;10252;48.792;8.582;2023-10-09T23:27:49;16.60;;;5.55;;
20185;SDS011;10252;48.792;8.582;2023-10-09T23:32:51;16.92;;;5.50;;
20185;SDS011;10252;48.792;8.582;2023-10-09T23:38:15;17.98;;;5.10;;
20185;SDS011;10252;48.792;8.582;2023-10-09T23:43:55;12.13;;;4.35;;
20185;SDS011;10252;48.792;8.582;2023-10-09T23:48:57;11.73;;;5.22;;
20185;SDS011;10252;48.792;8.582;2023-10-09T23:54:00;15.18;;;5.47;;
20185;SDS011;10252;48.792;8.582;2023-10-09T23:59:02;13.15;;;4.53;;
